createdAt,value
2022-09-21T00:00:54.490Z,26.7
2022-09-21T00:01:57.275Z,26.7
2022-09-21T00:03:00.032Z,26.7
2022-09-21T00:04:02.678Z,26.8
2022-09-21T00:05:04.324Z,26.8
2022-09-21T00:06:06.547Z,26.8
2022-09-21T00:07:07.910Z,26.8
2022-09-21T00:08:10.386Z,26.8
2022-09-21T00:09:12.862Z,26.8
2022-09-21T00:10:15.385Z,26.8
2022-09-21T00:11:17.865Z,26.8
2022-09-21T00:12:20.340Z,26.8
2022-09-21T00:13:22.810Z,26.8
2022-09-21T00:14:24.996Z,26.8
2022-09-21T00:15:27.463Z,26.8
2022-09-21T00:16:30.202Z,26.8
2022-09-21T00:17:32.458Z,26.8
2022-09-21T00:18:35.087Z,26.8
2022-09-21T00:19:37.563Z,26.8
2022-09-21T00:20:40.034Z,26.8
2022-09-21T00:21:42.496Z,26.9
2022-09-21T00:22:44.703Z,26.8
2022-09-21T00:23:46.905Z,26.9
2022-09-21T00:24:49.451Z,26.9
2022-09-21T00:25:51.958Z,26.9
2022-09-21T00:26:54.438Z,26.9
2022-09-21T00:27:56.913Z,26.9
2022-09-21T00:28:59.392Z,26.9
2022-09-21T00:30:01.865Z,26.9
2022-09-21T00:31:03.774Z,26.9
2022-09-21T00:32:06.441Z,26.9
2022-09-21T00:33:09.140Z,26.9
2022-09-21T00:34:11.342Z,26.9
2022-09-21T00:35:13.552Z,26.9
2022-09-21T00:36:16.028Z,26.9
2022-09-21T00:37:18.498Z,26.9
2022-09-21T00:38:20.975Z,26.9
2022-09-21T00:39:23.170Z,26.9
2022-09-21T00:40:25.924Z,26.9
2022-09-21T00:41:28.564Z,26.9
2022-09-21T00:42:31.080Z,26.9
2022-09-21T00:43:33.546Z,26.9
2022-09-21T00:44:35.724Z,26.9
2022-09-21T00:45:38.066Z,26.9
2022-09-21T00:46:39.946Z,26.9
2022-09-21T00:47:42.434Z,26.9
2022-09-21T00:48:44.921Z,26.9
2022-09-21T00:49:47.393Z,26.9
2022-09-21T00:50:49.881Z,26.9
2022-09-21T00:51:52.349Z,26.9
2022-09-21T00:52:54.820Z,26.9
2022-09-21T00:53:57.015Z,26.9
2022-09-21T00:54:59.492Z,26.9
2022-09-21T00:56:01.981Z,26.9
2022-09-21T00:57:04.605Z,27
2022-09-21T00:58:06.812Z,26.9
2022-09-21T00:59:09.291Z,27
2022-09-21T01:00:11.766Z,27
2022-09-21T01:01:13.796Z,27
2022-09-21T01:02:16.349Z,27
2022-09-21T01:03:18.984Z,27
2022-09-21T01:04:21.464Z,27
2022-09-21T01:05:23.387Z,27
2022-09-21T01:06:25.606Z,27
2022-09-21T01:07:27.818Z,27
2022-09-21T01:08:30.021Z,27
2022-09-21T01:09:32.213Z,27
2022-09-21T01:10:34.684Z,27
2022-09-21T01:11:37.174Z,27
2022-09-21T01:12:39.384Z,27
2022-09-21T01:13:41.651Z,27
2022-09-21T01:14:44.125Z,27
2022-09-21T01:15:46.592Z,27
2022-09-21T01:16:49.080Z,27
2022-09-21T01:17:51.286Z,27
2022-09-21T01:18:53.764Z,27
2022-09-21T01:19:56.233Z,27
2022-09-21T01:20:58.706Z,27
2022-09-21T01:22:01.202Z,27
2022-09-21T01:23:03.688Z,27
2022-09-21T01:24:06.183Z,27
2022-09-21T01:25:08.390Z,27
2022-09-21T01:26:10.862Z,27
2022-09-21T01:27:13.353Z,27
2022-09-21T01:28:15.605Z,27
2022-09-21T01:29:17.830Z,27
2022-09-21T01:30:20.295Z,27
2022-09-21T01:31:22.645Z,27
2022-09-21T01:32:25.233Z,27
2022-09-21T01:33:27.712Z,27
2022-09-21T01:34:29.910Z,27
2022-09-21T01:35:32.110Z,27
2022-09-21T01:36:34.583Z,27
2022-09-21T01:37:36.881Z,27
2022-09-21T01:38:39.354Z,27
2022-09-21T01:39:41.834Z,27
2022-09-21T01:40:44.709Z,27
2022-09-21T01:41:47.378Z,27
2022-09-21T01:42:49.881Z,27
2022-09-21T01:43:52.486Z,27
2022-09-21T01:44:54.955Z,27
2022-09-21T01:45:57.080Z,27
2022-09-21T01:46:59.444Z,27
2022-09-21T01:48:01.923Z,27
2022-09-21T01:49:04.117Z,27
2022-09-21T01:50:06.571Z,27
2022-09-21T01:51:09.036Z,27
2022-09-21T01:52:11.244Z,27
2022-09-21T01:53:13.453Z,27
2022-09-21T01:54:15.977Z,27
2022-09-21T01:55:18.477Z,27
2022-09-21T01:56:20.977Z,27.1
2022-09-21T01:57:23.450Z,27
2022-09-21T01:58:25.946Z,27
2022-09-21T01:59:28.547Z,27
2022-09-21T02:00:31.211Z,27.1
2022-09-21T02:01:33.622Z,27
2022-09-21T02:02:36.092Z,27.1
2022-09-21T02:03:38.286Z,27.1
2022-09-21T02:04:40.757Z,27.1
2022-09-21T02:05:42.949Z,27.1
2022-09-21T02:07:00.083Z,27.1
2022-09-21T02:08:02.274Z,27.1
2022-09-21T02:09:04.759Z,27.1
2022-09-21T02:10:07.231Z,27.1
2022-09-21T02:11:09.140Z,27
2022-09-21T02:12:11.795Z,27
2022-09-21T02:13:19.130Z,27
2022-09-21T02:14:21.677Z,27
2022-09-21T02:15:24.223Z,27.1
2022-09-21T02:16:26.551Z,27.1
2022-09-21T02:17:29.155Z,27.1
2022-09-21T02:18:31.620Z,27
2022-09-21T02:19:34.097Z,27.1
2022-09-21T02:20:36.286Z,27.1
2022-09-21T02:21:38.758Z,27.1
2022-09-21T02:22:41.250Z,27
2022-09-21T02:23:43.455Z,27.1
2022-09-21T02:24:45.941Z,27.1
2022-09-21T02:25:48.422Z,27.1
2022-09-21T02:26:50.890Z,27.1
2022-09-21T02:27:53.366Z,27.1
2022-09-21T02:28:55.956Z,27.1
2022-09-21T02:29:58.327Z,27.1
2022-09-21T02:31:00.979Z,27.1
2022-09-21T02:32:03.409Z,27.1
2022-09-21T02:33:05.580Z,27.1
2022-09-21T02:34:08.206Z,27.1
2022-09-21T02:35:10.739Z,27.1
2022-09-21T02:36:13.213Z,27.1
2022-09-21T02:37:15.691Z,27.1
2022-09-21T02:38:17.894Z,27.1
2022-09-21T02:39:20.371Z,27.1
2022-09-21T02:40:23.113Z,27.1
2022-09-21T02:41:25.496Z,27.1
2022-09-21T02:42:27.978Z,27.1
2022-09-21T02:43:30.448Z,27.1
2022-09-21T02:44:32.935Z,27.1
2022-09-21T02:45:35.441Z,27.1
2022-09-21T02:46:37.820Z,27.1
2022-09-21T02:47:40.513Z,27.1
2022-09-21T02:48:42.735Z,27.1
2022-09-21T02:49:45.202Z,27.1
2022-09-21T02:50:47.688Z,27.1
2022-09-21T02:51:50.168Z,27.1
2022-09-21T02:52:52.708Z,27.1
2022-09-21T02:53:55.178Z,27.1
2022-09-21T02:54:57.082Z,27.1
2022-09-21T02:55:59.566Z,27.1
2022-09-21T02:57:02.054Z,27.1
2022-09-21T02:58:04.254Z,27.1
2022-09-21T02:59:07.250Z,27.1
2022-09-21T03:00:09.556Z,27.1
2022-09-21T03:01:12.122Z,27.1
2022-09-21T03:02:14.574Z,27.1
2022-09-21T03:03:17.263Z,27.1
2022-09-21T03:04:19.453Z,27.1
2022-09-21T03:05:21.646Z,27
2022-09-21T03:06:24.110Z,27
2022-09-21T03:07:26.289Z,27
2022-09-21T03:08:28.783Z,27
2022-09-21T03:09:31.257Z,27
2022-09-21T03:10:33.437Z,27
2022-09-21T03:11:35.641Z,26.9
2022-09-21T03:12:37.843Z,26.9
2022-09-21T03:13:40.306Z,26.9
2022-09-21T03:14:41.939Z,26.9
2022-09-21T03:15:44.333Z,26.9
2022-09-21T03:16:46.962Z,26.9
2022-09-21T03:17:49.554Z,26.8
2022-09-21T03:18:52.025Z,26.8
2022-09-21T03:19:54.505Z,26.8
2022-09-21T03:20:56.970Z,26.8
2022-09-21T03:21:59.141Z,26.8
2022-09-21T03:23:01.344Z,26.8
2022-09-21T03:24:03.824Z,26.8
2022-09-21T03:25:06.304Z,26.8
2022-09-21T03:26:08.512Z,26.8
2022-09-21T03:27:11.010Z,26.8
2022-09-21T03:28:12.904Z,26.8
2022-09-21T03:29:15.377Z,26.7
2022-09-21T03:30:17.848Z,26.7
2022-09-21T03:31:20.471Z,26.7
2022-09-21T03:32:22.768Z,26.7
2022-09-21T03:33:25.275Z,26.7
2022-09-21T03:34:27.487Z,26.7
2022-09-21T03:35:30.194Z,26.7
2022-09-21T03:36:32.782Z,26.7
2022-09-21T03:38:40.315Z,26.7
2022-09-21T03:39:42.815Z,26.7
2022-09-21T03:40:45.338Z,26.7
2022-09-21T03:41:47.815Z,26.7
2022-09-21T03:42:50.387Z,26.7
2022-09-21T03:43:52.606Z,26.6
2022-09-21T03:44:54.257Z,26.6
2022-09-21T03:45:56.879Z,26.6
2022-09-21T03:46:59.572Z,26.6
2022-09-21T03:48:02.461Z,26.6
2022-09-21T03:49:04.980Z,26.6
2022-09-21T03:51:12.478Z,26.6
2022-09-21T03:52:14.960Z,26.6
2022-09-21T03:53:17.465Z,26.6
2022-09-21T03:54:19.949Z,26.6
2022-09-21T03:55:22.447Z,26.6
2022-09-21T03:56:24.670Z,26.6
2022-09-21T03:57:27.162Z,26.6
2022-09-21T03:58:29.696Z,26.6
2022-09-21T03:59:31.900Z,26.6
2022-09-21T04:00:34.109Z,26.6
2022-09-21T04:01:36.169Z,26.6
2022-09-21T04:02:38.916Z,26.6
2022-09-21T04:03:41.596Z,26.6
2022-09-21T04:04:44.154Z,26.6
2022-09-21T04:05:46.688Z,26.6
2022-09-21T04:06:48.863Z,26.6
2022-09-21T04:07:51.345Z,26.6
2022-09-21T04:08:53.527Z,26.6
2022-09-21T04:09:55.999Z,26.6
2022-09-21T04:10:58.471Z,26.5
2022-09-21T04:12:00.954Z,26.5
2022-09-21T04:13:02.869Z,26.5
2022-09-21T04:14:04.812Z,26.5
2022-09-21T04:15:06.989Z,26.5
2022-09-21T04:16:09.318Z,26.5
2022-09-21T04:17:12.166Z,26.5
2022-09-21T04:18:14.879Z,26.5
2022-09-21T04:19:17.393Z,26.5
2022-09-21T04:20:20.062Z,26.5
2022-09-21T04:21:22.588Z,26.5
2022-09-21T04:22:24.814Z,26.5
2022-09-21T04:23:27.348Z,26.5
2022-09-21T04:24:29.548Z,26.5
2022-09-21T04:25:31.466Z,26.5
2022-09-21T04:26:33.959Z,26.5
2022-09-21T04:27:36.421Z,26.5
2022-09-21T04:28:38.892Z,26.5
2022-09-21T04:29:41.159Z,26.5
2022-09-21T04:30:43.785Z,26.5
2022-09-21T04:31:46.462Z,26.5
2022-09-21T04:32:48.939Z,26.5
2022-09-21T04:33:50.841Z,26.5
2022-09-21T04:34:53.379Z,26.5
2022-09-21T04:35:55.664Z,26.5
2022-09-21T04:36:58.151Z,26.5
2022-09-21T04:38:00.629Z,26.5
2022-09-21T04:39:03.104Z,26.5
2022-09-21T04:40:05.222Z,26.5
2022-09-21T04:41:07.659Z,26.5
2022-09-21T04:42:09.866Z,26.5
2022-09-21T04:43:12.069Z,26.5
2022-09-21T04:44:14.289Z,26.5
2022-09-21T04:45:16.502Z,26.5
2022-09-21T04:46:19.171Z,26.5
2022-09-21T04:47:21.636Z,26.5
2022-09-21T04:48:23.844Z,26.5
2022-09-21T04:49:25.763Z,26.5
2022-09-21T04:50:27.987Z,26.5
2022-09-21T04:51:30.230Z,26.5
2022-09-21T04:52:32.432Z,26.5
2022-09-21T04:53:34.903Z,26.5
2022-09-21T04:54:37.375Z,26.5
2022-09-21T04:55:39.842Z,26.5
2022-09-21T04:56:42.309Z,26.5
2022-09-21T04:57:44.506Z,26.5
2022-09-21T04:58:46.978Z,26.5
2022-09-21T04:59:49.455Z,26.5
2022-09-21T05:00:51.998Z,26.5
2022-09-21T05:01:54.818Z,26.5
2022-09-21T05:02:57.026Z,26.5
2022-09-21T05:03:59.457Z,26.5
2022-09-21T05:05:02.078Z,26.5
2022-09-21T05:06:04.680Z,26.5
2022-09-21T05:07:07.219Z,26.5
2022-09-21T05:08:09.713Z,26.5
2022-09-21T05:09:11.898Z,26.5
2022-09-21T05:10:14.364Z,26.4
2022-09-21T05:11:16.866Z,26.4
2022-09-21T05:12:19.074Z,26.4
2022-09-21T05:13:21.275Z,26.4
2022-09-21T05:14:23.753Z,26.4
2022-09-21T05:15:26.469Z,26.4
2022-09-21T05:16:28.862Z,26.4
2022-09-21T05:17:31.338Z,26.4
2022-09-21T05:18:33.830Z,26.4
2022-09-21T05:19:36.307Z,26.4
2022-09-21T05:20:38.776Z,26.4
2022-09-21T05:21:40.984Z,26.4
2022-09-21T05:22:43.227Z,26.4
2022-09-21T05:23:45.835Z,26.4
2022-09-21T05:24:48.036Z,26.4
2022-09-21T05:25:50.531Z,26.4
2022-09-21T05:26:53.018Z,26.4
2022-09-21T05:27:55.223Z,26.4
2022-09-21T05:28:57.693Z,26.4
2022-09-21T05:30:00.325Z,26.4
2022-09-21T05:32:07.841Z,26.4
2022-09-21T05:33:10.326Z,26.4
2022-09-21T05:34:12.533Z,26.4
2022-09-21T05:35:15.004Z,26.4
2022-09-21T05:36:17.207Z,26.4
2022-09-21T05:37:19.392Z,26.4
2022-09-21T05:38:21.651Z,26.4
2022-09-21T05:39:23.880Z,26.4
2022-09-21T05:40:26.302Z,26.4
2022-09-21T05:41:29.000Z,26.4
2022-09-21T05:42:31.474Z,26.4
2022-09-21T05:43:33.954Z,26.4
2022-09-21T05:44:36.434Z,26.4
2022-09-21T05:45:38.508Z,26.4
2022-09-21T05:46:40.796Z,26.4
2022-09-21T05:47:43.287Z,26.4
2022-09-21T05:48:45.500Z,26.4
2022-09-21T05:49:47.676Z,26.4
2022-09-21T05:50:49.581Z,26.4
2022-09-21T05:51:52.060Z,26.4
2022-09-21T05:52:53.999Z,26.4
2022-09-21T05:53:56.318Z,26.4
2022-09-21T05:54:58.248Z,26.4
2022-09-21T05:56:00.450Z,26.4
2022-09-21T05:57:02.631Z,26.4
2022-09-21T05:58:05.117Z,26.4
2022-09-21T05:59:07.605Z,26.4
2022-09-21T06:00:10.088Z,26.3
2022-09-21T06:01:12.708Z,26.3
2022-09-21T06:02:15.466Z,26.4
2022-09-21T06:03:18.846Z,26.4
2022-09-21T06:04:21.331Z,26.3
2022-09-21T06:05:23.832Z,26.3
2022-09-21T06:06:25.999Z,26.4
2022-09-21T06:07:28.200Z,26.4
2022-09-21T06:08:30.718Z,26.4
2022-09-21T06:09:32.987Z,26.3
2022-09-21T06:10:35.227Z,26.4
2022-09-21T06:11:37.433Z,26.4
2022-09-21T06:12:39.900Z,26.4
2022-09-21T06:13:42.384Z,26.3
2022-09-21T06:14:44.578Z,26.4
2022-09-21T06:15:46.780Z,26.4
2022-09-21T06:16:48.863Z,26.4
2022-09-21T06:17:51.554Z,26.4
2022-09-21T06:18:54.046Z,26.4
2022-09-21T06:19:56.259Z,26.4
2022-09-21T06:20:58.752Z,26.4
2022-09-21T06:22:01.330Z,26.3
2022-09-21T06:23:03.538Z,26.4
2022-09-21T06:24:06.032Z,26.3
2022-09-21T06:25:08.270Z,26.4
2022-09-21T06:26:10.759Z,26.4
2022-09-21T06:27:13.238Z,26.3
2022-09-21T06:28:15.714Z,26.3
2022-09-21T06:29:18.183Z,26.3
2022-09-21T06:30:20.651Z,26.3
2022-09-21T06:31:23.145Z,26.3
2022-09-21T06:32:25.040Z,26.3
2022-09-21T06:33:27.233Z,26.3
2022-09-21T06:34:29.441Z,26.3
2022-09-21T06:35:31.921Z,26.3
2022-09-21T06:36:34.110Z,26.3
2022-09-21T06:37:36.035Z,26.3
2022-09-21T06:38:37.964Z,26.3
2022-09-21T06:39:40.190Z,26.3
2022-09-21T06:40:42.958Z,26.3
2022-09-21T06:41:45.324Z,26.3
2022-09-21T06:42:47.503Z,26.3
2022-09-21T06:43:49.722Z,26.3
2022-09-21T06:44:52.195Z,26.3
2022-09-21T06:45:54.606Z,26.3
2022-09-21T06:46:57.287Z,26.3
2022-09-21T06:47:59.767Z,26.3
2022-09-21T06:49:01.990Z,26.3
2022-09-21T06:50:04.483Z,26.3
2022-09-21T06:51:06.688Z,26.3
2022-09-21T06:52:09.172Z,26.3
2022-09-21T06:53:11.104Z,26.3
2022-09-21T06:54:13.286Z,26.3
2022-09-21T06:55:15.490Z,26.3
2022-09-21T06:56:17.707Z,26.3
2022-09-21T06:57:20.181Z,26.3
2022-09-21T06:58:22.662Z,26.3
2022-09-21T06:59:25.129Z,26.3
2022-09-21T07:00:27.198Z,26.3
2022-09-21T07:01:29.772Z,26.3
2022-09-21T07:02:32.611Z,26.3
2022-09-21T07:03:35.075Z,26.3
2022-09-21T07:04:37.545Z,26.3
2022-09-21T07:05:39.190Z,26.3
2022-09-21T07:06:41.685Z,26.3
2022-09-21T07:07:44.166Z,26.3
2022-09-21T07:10:56.125Z,26.3
2022-09-21T07:11:58.669Z,26.3
2022-09-21T07:13:01.192Z,26.3
2022-09-21T07:14:03.098Z,26.3
2022-09-21T07:15:05.578Z,26.3
2022-09-21T07:16:07.977Z,26.3
2022-09-21T07:18:16.052Z,26.3
2022-09-21T07:19:18.529Z,26.3
2022-09-21T07:20:20.766Z,26.3
2022-09-21T07:21:22.982Z,26.3
2022-09-21T07:22:25.363Z,26.3
2022-09-21T07:23:27.561Z,26.3
2022-09-21T07:24:29.802Z,26.3
2022-09-21T07:25:32.009Z,26.3
2022-09-21T07:26:34.486Z,26.3
2022-09-21T07:27:36.740Z,26.3
2022-09-21T07:28:39.235Z,26.3
2022-09-21T07:29:41.710Z,26.3
2022-09-21T07:30:43.921Z,26.3
2022-09-21T07:31:45.896Z,26.3
2022-09-21T07:32:48.560Z,26.3
2022-09-21T07:33:51.031Z,26.3
2022-09-21T07:34:53.509Z,26.3
2022-09-21T07:35:55.980Z,26.3
2022-09-21T07:36:58.241Z,26.3
2022-09-21T07:38:00.767Z,26.3
2022-09-21T07:39:03.251Z,26.3
2022-09-21T07:40:05.660Z,26.3
2022-09-21T07:41:08.396Z,26.3
2022-09-21T07:42:10.600Z,26.3
2022-09-21T07:43:13.155Z,26.3
2022-09-21T07:44:15.666Z,26.3
2022-09-21T07:45:18.145Z,26.3
2022-09-21T07:46:20.565Z,26.3
2022-09-21T07:47:22.521Z,26.3
2022-09-21T07:48:24.723Z,26.3
2022-09-21T07:49:26.920Z,26.3
2022-09-21T07:50:29.391Z,26.3
2022-09-21T07:51:31.885Z,26.3
2022-09-21T07:52:34.410Z,26.3
2022-09-21T07:53:36.627Z,26.3
2022-09-21T07:54:38.818Z,26.3
2022-09-21T07:55:40.757Z,26.3
2022-09-21T07:56:42.963Z,26.3
2022-09-21T07:57:45.458Z,26.3
2022-09-21T07:58:48.011Z,26.3
2022-09-21T07:59:50.225Z,26.3
2022-09-21T08:00:52.322Z,26.3
2022-09-21T08:01:54.731Z,26.3
2022-09-21T08:02:57.101Z,26.3
2022-09-21T08:03:59.136Z,26.3
2022-09-21T08:05:01.094Z,26.3
2022-09-21T08:06:03.646Z,26.3
2022-09-21T08:07:06.099Z,26.3
2022-09-21T08:08:08.664Z,26.3
2022-09-21T08:09:10.886Z,26.3
2022-09-21T08:10:13.350Z,26.3
2022-09-21T08:11:15.570Z,26.3
2022-09-21T08:12:17.769Z,26.3
2022-09-21T08:13:19.971Z,26.3
2022-09-21T08:16:33.054Z,26.3
2022-09-21T08:17:36.026Z,26.3
2022-09-21T08:18:39.580Z,26.3
2022-09-21T08:19:41.908Z,26.3
2022-09-21T08:20:44.111Z,26.3
2022-09-21T08:21:46.590Z,26.3
2022-09-21T08:22:48.549Z,26.3
2022-09-21T08:23:50.768Z,26.3
2022-09-21T08:24:53.248Z,26.3
2022-09-21T08:25:55.460Z,26.3
2022-09-21T08:26:57.965Z,26.3
2022-09-21T08:28:00.148Z,26.3
2022-09-21T08:29:02.354Z,26.3
2022-09-21T08:30:04.859Z,26.3
2022-09-21T08:31:07.498Z,26.3
2022-09-21T08:32:13.414Z,26.3
2022-09-21T08:33:15.872Z,26.3
2022-09-21T08:34:18.090Z,26.3
2022-09-21T08:35:20.574Z,26.3
2022-09-21T08:36:23.118Z,26.3
2022-09-21T08:37:25.332Z,26.3
2022-09-21T08:38:27.821Z,26.3
2022-09-21T08:39:30.434Z,26.3
2022-09-21T08:40:33.201Z,26.3
2022-09-21T08:41:35.955Z,26.3
2022-09-21T08:42:38.426Z,26.3
2022-09-21T08:43:40.922Z,26.3
2022-09-21T08:44:43.417Z,26.3
2022-09-21T08:45:45.345Z,26.3
2022-09-21T08:46:47.852Z,26.3
2022-09-21T08:47:50.512Z,26.3
2022-09-21T08:48:52.982Z,26.3
2022-09-21T08:49:54.934Z,26.3
2022-09-21T08:50:57.413Z,26.3
2022-09-21T08:52:00.204Z,26.3
2022-09-21T08:53:02.873Z,26.3
2022-09-21T08:54:05.783Z,26.3
2022-09-21T08:55:08.100Z,26.3
2022-09-21T08:56:10.575Z,26.3
2022-09-21T08:57:12.524Z,26.3
2022-09-21T08:58:15.004Z,26.3
2022-09-21T08:59:17.485Z,26.3
2022-09-21T09:00:19.662Z,26.3
2022-09-21T09:01:22.433Z,26.3
2022-09-21T09:02:24.551Z,26.3
2022-09-21T09:03:27.266Z,26.3
2022-09-21T09:04:29.496Z,26.3
2022-09-21T09:05:32.032Z,26.3
2022-09-21T09:06:34.515Z,26.3
2022-09-21T09:07:36.995Z,26.3
2022-09-21T09:08:39.218Z,26.3
2022-09-21T09:09:41.144Z,26.3
2022-09-21T09:10:43.650Z,26.3
2022-09-21T09:11:46.125Z,26.3
2022-09-21T09:12:48.638Z,26.3
2022-09-21T09:13:51.104Z,26.3
2022-09-21T09:14:53.586Z,26.3
2022-09-21T09:15:55.940Z,26.3
2022-09-21T09:16:58.948Z,26.3
2022-09-21T09:18:01.151Z,26.3
2022-09-21T09:19:03.668Z,26.3
2022-09-21T09:20:06.075Z,26.3
2022-09-21T09:21:08.599Z,26.3
2022-09-21T09:22:11.362Z,26.3
2022-09-21T09:23:13.306Z,26.3
2022-09-21T09:24:15.778Z,26.3
2022-09-21T09:25:17.975Z,26.3
2022-09-21T09:26:19.922Z,26.3
2022-09-21T09:27:22.410Z,26.3
2022-09-21T09:28:24.590Z,26.3
2022-09-21T09:29:27.083Z,26.3
2022-09-21T09:30:29.568Z,26.3
2022-09-21T09:31:31.882Z,26.3
2022-09-21T09:32:34.142Z,26.3
2022-09-21T09:33:36.614Z,26.3
2022-09-21T09:34:39.134Z,26.3
2022-09-21T09:35:41.614Z,26.3
2022-09-21T09:37:48.570Z,26.3
2022-09-21T09:38:50.740Z,26.3
2022-09-21T09:39:52.959Z,26.3
2022-09-21T09:40:55.437Z,26.3
2022-09-21T09:41:57.664Z,26.3
2022-09-21T09:44:04.857Z,26.3
2022-09-21T09:45:07.061Z,26.3
2022-09-21T09:47:14.533Z,26.3
2022-09-21T09:48:16.786Z,26.3
2022-09-21T09:49:19.322Z,26.3
2022-09-21T09:50:22.032Z,26.3
2022-09-21T09:51:24.559Z,26.3
2022-09-21T09:52:27.090Z,26.3
2022-09-21T09:53:29.567Z,26.3
2022-09-21T09:54:32.070Z,26.3
2022-09-21T09:55:34.278Z,26.3
2022-09-21T09:56:36.744Z,26.3
2022-09-21T09:57:39.266Z,26.3
2022-09-21T09:58:41.464Z,26.3
2022-09-21T09:59:43.946Z,26.3
2022-09-21T10:00:46.420Z,26.3
2022-09-21T10:01:49.160Z,26.3
2022-09-21T10:02:51.258Z,26.3
2022-09-21T10:03:53.932Z,26.3
2022-09-21T10:04:56.229Z,26.3
2022-09-21T10:05:58.749Z,26.3
2022-09-21T10:07:01.238Z,26.3
2022-09-21T10:08:03.777Z,26.3
2022-09-21T10:09:06.001Z,26.3
2022-09-21T10:10:08.203Z,26.3
2022-09-21T10:11:10.421Z,26.3
2022-09-21T10:12:12.908Z,26.3
2022-09-21T10:13:15.130Z,26.3
2022-09-21T10:14:17.661Z,26.3
2022-09-21T10:15:19.857Z,26.3
2022-09-21T10:16:22.737Z,26.3
2022-09-21T10:17:24.910Z,26.3
2022-09-21T10:18:27.402Z,26.3
2022-09-21T10:19:29.324Z,26.3
2022-09-21T10:20:31.868Z,26.3
2022-09-21T10:21:34.116Z,26.3
2022-09-21T10:22:36.608Z,26.3
2022-09-21T10:23:39.104Z,26.3
2022-09-21T10:24:41.014Z,26.3
2022-09-21T10:25:43.485Z,26.3
2022-09-21T10:26:45.960Z,26.3
2022-09-21T10:27:48.160Z,26.3
2022-09-21T10:28:50.668Z,26.3
2022-09-21T10:29:52.605Z,26.3
2022-09-21T10:30:55.258Z,26.3
2022-09-21T10:31:57.862Z,26.3
2022-09-21T10:33:00.360Z,26.3
2022-09-21T10:34:02.839Z,26.3
2022-09-21T10:35:05.356Z,26.3
2022-09-21T10:36:07.531Z,26.3
2022-09-21T10:37:09.542Z,26.3
2022-09-21T10:38:11.763Z,26.3
2022-09-21T10:39:14.311Z,26.3
2022-09-21T10:40:17.006Z,26.3
2022-09-21T10:41:19.714Z,26.3
2022-09-21T10:42:21.650Z,26.3
2022-09-21T10:43:25.181Z,26.3
2022-09-21T10:44:28.589Z,26.3
2022-09-21T10:45:31.076Z,26.3
2022-09-21T10:46:33.705Z,26.3
2022-09-21T10:47:36.252Z,26.3
2022-09-21T10:48:38.186Z,26.3
2022-09-21T10:49:40.416Z,26.3
2022-09-21T10:50:42.913Z,26.3
2022-09-21T10:51:45.394Z,26.3
2022-09-21T10:52:48.515Z,26.3
2022-09-21T10:54:55.974Z,26.3
2022-09-21T10:57:03.494Z,26.3
2022-09-21T10:58:05.967Z,26.3
2022-09-21T10:59:08.439Z,26.3
2022-09-21T11:00:10.668Z,26.3
2022-09-21T11:01:13.333Z,26.3
2022-09-21T11:02:17.446Z,26.3
2022-09-21T11:03:19.788Z,26.3
2022-09-21T11:04:22.264Z,26.3
2022-09-21T11:05:24.766Z,26.3
2022-09-21T11:06:27.255Z,26.3
2022-09-21T11:07:29.734Z,26.3
2022-09-21T11:08:32.257Z,26.3
2022-09-21T11:09:34.722Z,26.3
2022-09-21T11:10:36.922Z,26.3
2022-09-21T11:11:39.422Z,26.3
2022-09-21T11:12:41.917Z,26.3
2022-09-21T11:13:44.401Z,26.3
2022-09-21T11:14:46.587Z,26.3
2022-09-21T11:15:49.350Z,26.3
2022-09-21T11:16:52.030Z,26.3
2022-09-21T11:17:54.509Z,26.3
2022-09-21T11:18:56.778Z,26.3
2022-09-21T11:19:59.580Z,26.3
2022-09-21T11:21:02.181Z,26.3
2022-09-21T11:22:04.435Z,26.3
2022-09-21T11:23:06.916Z,26.3
2022-09-21T11:24:09.543Z,26.3
2022-09-21T11:25:11.768Z,26.3
2022-09-21T11:26:13.716Z,26.3
2022-09-21T11:27:16.213Z,26.3
2022-09-21T11:28:18.408Z,26.3
2022-09-21T11:29:21.007Z,26.3
2022-09-21T11:30:23.334Z,26.3
2022-09-21T11:31:25.837Z,26.3
2022-09-21T11:32:28.053Z,26.3
2022-09-21T11:33:30.526Z,26.3
2022-09-21T11:34:33.029Z,26.3
2022-09-21T11:35:35.231Z,26.3
2022-09-21T11:36:37.423Z,26.3
2022-09-21T11:37:39.905Z,26.3
2022-09-21T11:38:44.410Z,26.3
2022-09-21T11:39:46.938Z,26.3
2022-09-21T11:40:49.400Z,26.3
2022-09-21T11:41:51.592Z,26.3
2022-09-21T11:42:53.811Z,26.3
2022-09-21T11:43:56.285Z,26.3
2022-09-21T11:45:03.334Z,26.3
2022-09-21T11:46:05.324Z,26.3
2022-09-21T11:47:07.981Z,26.3
2022-09-21T11:48:10.458Z,26.3
2022-09-21T11:49:12.937Z,26.3
2022-09-21T11:51:19.908Z,26.3
2022-09-21T11:52:22.428Z,26.3
2022-09-21T11:53:24.659Z,26.3
2022-09-21T11:54:26.838Z,26.3
2022-09-21T11:55:29.083Z,26.3
2022-09-21T11:56:31.586Z,26.3
2022-09-21T11:57:34.061Z,26.3
2022-09-21T11:58:36.291Z,26.3
2022-09-21T11:59:38.497Z,26.3
2022-09-21T12:00:40.712Z,26.3
2022-09-21T12:01:42.923Z,26.3
2022-09-21T12:02:46.115Z,26.3
2022-09-21T12:03:48.740Z,26.3
2022-09-21T12:04:50.959Z,26.3
2022-09-21T12:05:53.448Z,26.3
2022-09-21T12:06:55.661Z,26.3
2022-09-21T12:07:57.875Z,26.3
2022-09-21T12:09:00.374Z,26.3
2022-09-21T12:10:05.221Z,26.3
2022-09-21T12:11:08.933Z,26.3
2022-09-21T12:12:11.406Z,26.3
2022-09-21T12:13:13.075Z,26.3
2022-09-21T12:14:15.593Z,26.3
2022-09-21T12:15:17.950Z,26.3
2022-09-21T12:16:20.788Z,26.3
2022-09-21T12:17:23.462Z,26.3
2022-09-21T12:18:25.713Z,26.3
2022-09-21T12:19:28.208Z,26.3
2022-09-21T12:20:30.402Z,26.3
2022-09-21T12:21:32.886Z,26.3
2022-09-21T12:22:35.369Z,26.3
2022-09-21T12:23:37.863Z,26.3
2022-09-21T12:24:40.081Z,26.3
2022-09-21T12:25:42.577Z,26.3
2022-09-21T12:26:45.092Z,26.3
2022-09-21T12:27:47.575Z,26.3
2022-09-21T12:28:49.197Z,26.3
2022-09-21T12:29:51.207Z,26.3
2022-09-21T12:32:00.070Z,26.3
2022-09-21T12:33:02.555Z,26.3
2022-09-21T12:34:05.242Z,26.3
2022-09-21T12:35:08.135Z,26.3
2022-09-21T12:36:10.615Z,26.3
2022-09-21T12:37:12.843Z,26.3
2022-09-21T12:38:14.805Z,26.3
2022-09-21T12:39:17.298Z,26.3
2022-09-21T12:40:20.067Z,26.3
2022-09-21T12:41:22.009Z,26.3
2022-09-21T12:42:23.976Z,26.3
2022-09-21T12:43:26.454Z,26.3
2022-09-21T12:44:28.653Z,26.3
2022-09-21T12:45:30.921Z,26.3
2022-09-21T12:46:33.250Z,26.3
2022-09-21T12:47:36.102Z,26.3
2022-09-21T12:48:38.597Z,26.3
2022-09-21T12:49:41.100Z,26.3
2022-09-21T12:50:43.587Z,26.3
2022-09-21T12:51:45.493Z,26.3
2022-09-21T12:52:47.434Z,26.3
2022-09-21T12:53:51.649Z,26.3
2022-09-21T12:54:54.118Z,26.3
2022-09-21T12:55:56.639Z,26.3
2022-09-21T12:56:59.118Z,26.3
2022-09-21T12:59:06.807Z,26.3
2022-09-21T13:00:09.454Z,26.3
2022-09-21T13:01:12.064Z,26.3
2022-09-21T13:02:15.869Z,26.3
2022-09-21T13:03:19.088Z,26.3
2022-09-21T13:04:21.110Z,26.3
2022-09-21T13:05:23.616Z,26.3
2022-09-21T13:06:25.840Z,26.3
2022-09-21T13:07:28.045Z,26.3
2022-09-21T13:08:30.534Z,26.3
2022-09-21T13:09:33.020Z,26.3
2022-09-21T13:10:35.255Z,26.3
2022-09-21T13:11:37.494Z,26.3
2022-09-21T13:12:39.672Z,26.3
2022-09-21T13:13:41.899Z,26.3
2022-09-21T13:14:44.427Z,26.3
2022-09-21T13:15:46.627Z,26.3
2022-09-21T13:16:49.238Z,26.3
2022-09-21T13:17:51.550Z,26.3
2022-09-21T13:18:53.507Z,26.3
2022-09-21T13:19:56.137Z,26.3
2022-09-21T13:20:58.665Z,26.3
2022-09-21T13:22:00.876Z,26.3
2022-09-21T13:23:03.127Z,26.3
2022-09-21T13:24:05.358Z,26.3
2022-09-21T13:25:07.859Z,26.3
2022-09-21T13:26:10.334Z,26.3
2022-09-21T13:27:12.841Z,26.3
2022-09-21T13:28:15.050Z,26.3
2022-09-21T13:29:17.254Z,26.3
2022-09-21T13:30:19.790Z,26.3
2022-09-21T13:32:27.198Z,26.3
2022-09-21T13:33:29.889Z,26.3
2022-09-21T13:34:32.093Z,26.3
2022-09-21T13:35:34.309Z,26.3
2022-09-21T13:36:36.802Z,26.3
2022-09-21T13:37:39.270Z,26.3
2022-09-21T13:38:41.754Z,26.3
2022-09-21T13:39:44.229Z,26.3
2022-09-21T13:40:46.894Z,26.3
2022-09-21T13:42:54.512Z,26.3
2022-09-21T13:45:01.811Z,26.3
2022-09-21T13:46:04.317Z,26.3
2022-09-21T13:47:06.744Z,26.3
2022-09-21T13:48:09.225Z,26.3
2022-09-21T13:49:11.834Z,26.3
2022-09-21T13:50:14.304Z,26.3
2022-09-21T13:51:16.510Z,26.3
2022-09-21T13:52:19.003Z,26.3
2022-09-21T13:53:21.497Z,26.3
2022-09-21T13:54:23.972Z,26.3
2022-09-21T13:55:26.454Z,26.3
2022-09-21T13:56:28.679Z,26.3
2022-09-21T13:57:31.161Z,26.3
2022-09-21T13:58:33.084Z,26.3
2022-09-21T13:59:35.595Z,26.3
2022-09-21T14:00:38.247Z,26.3
2022-09-21T14:02:45.803Z,26.3
2022-09-21T14:03:48.457Z,26.3
2022-09-21T14:04:50.964Z,26.3
2022-09-21T14:05:53.158Z,26.3
2022-09-21T14:06:55.654Z,26.3
2022-09-21T14:07:57.870Z,26.3
2022-09-21T14:09:00.082Z,26.3
2022-09-21T14:10:02.007Z,26.3
2022-09-21T14:11:04.222Z,26.3
2022-09-21T14:12:06.716Z,26.3
2022-09-21T14:13:08.924Z,26.3
2022-09-21T14:14:11.124Z,26.3
2022-09-21T14:15:13.617Z,26.3
2022-09-21T14:16:16.274Z,26.3
2022-09-21T14:17:18.626Z,26.3
2022-09-21T14:18:21.147Z,26.3